sensor_id;sensor_type;location;lat;lon;timestamp;temperature;humidity
3154;DHT22;1587;48.630;9.046;2023-04-24T00:00:12;8.00;99.90
3154;DHT22;1587;48.630;9.046;2023-04-24T00:02:40;8.20;99.90
3154;DHT22;1587;48.630;9.046;2023-04-24T00:05:06;8.20;99.90
3154;DHT22;1587;48.630;9.046;2023-04-24T00:07:32;8.30;99.90
3154;DHT22;1587;48.630;9.046;2023-04-24T00:09:57;8.30;99.90
3154;DHT22;1587;48.630;9.046;2023-04-24T00:12:23;8.40;99.90
3154;DHT22;1587;48.630;9.046;2023-04-24T00:14:49;8.50;99.90
3154;DHT22;1587;48.630;9.046;2023-04-24T00:17:14;8.50;99.90
3154;DHT22;1587;48.630;9.046;2023-04-24T00:19:40;8.60;99.90
3154;DHT22;1587;48.630;9.046;2023-04-24T00:22:05;8.50;99.90
3154;DHT22;1587;48.630;9.046;2023-04-24T00:24:31;8.50;99.90
3154;DHT22;1587;48.630;9.046;2023-04-24T00:26:56;8.60;99.90
3154;DHT22;1587;48.630;9.046;2023-04-24T00:29:22;8.60;99.90
3154;DHT22;1587;48.630;9.046;2023-04-24T00:31:47;8.40;99.90
3154;DHT22;1587;48.630;9.046;2023-04-24T00:34:13;8.40;99.90
3154;DHT22;1587;48.630;9.046;2023-04-24T00:36:38;8.60;99.90
3154;DHT22;1587;48.630;9.046;2023-04-24T00:39:04;8.60;99.90
3154;DHT22;1587;48.630;9.046;2023-04-24T00:41:29;8.70;99.90
3154;DHT22;1587;48.630;9.046;2023-04-24T00:43:55;8.70;99.90
3154;DHT22;1587;48.630;9.046;2023-04-24T00:46:20;8.80;99.90
3154;DHT22;1587;48.630;9.046;2023-04-24T00:48:46;8.80;99.90
3154;DHT22;1587;48.630;9.046;2023-04-24T00:51:12;8.90;99.90
3154;DHT22;1587;48.630;9.046;2023-04-24T00:53:37;8.90;99.90
3154;DHT22;1587;48.630;9.046;2023-04-24T00:56:03;9.10;99.90
3154;DHT22;1587;48.630;9.046;2023-04-24T00:58:29;9.20;99.90
3154;DHT22;1587;48.630;9.046;2023-04-24T01:00:56;9.10;99.90
3154;DHT22;1587;48.630;9.046;2023-04-24T01:03:24;9.00;99.90
3154;DHT22;1587;48.630;9.046;2023-04-24T01:05:51;9.10;99.90
3154;DHT22;1587;48.630;9.046;2023-04-24T01:08:17;9.20;99.90
3154;DHT22;1587;48.630;9.046;2023-04-24T01:10:43;9.00;99.90
3154;DHT22;1587;48.630;9.046;2023-04-24T01:13:09;9.10;99.90
3154;DHT22;1587;48.630;9.046;2023-04-24T01:15:34;9.30;99.90
3154;DHT22;1587;48.630;9.046;2023-04-24T01:18:00;9.00;99.90
3154;DHT22;1587;48.630;9.046;2023-04-24T01:20:25;9.10;99.90
3154;DHT22;1587;48.630;9.046;2023-04-24T01:22:51;8.90;99.90
3154;DHT22;1587;48.630;9.046;2023-04-24T01:25:18;8.80;99.90
3154;DHT22;1587;48.630;9.046;2023-04-24T01:27:43;8.80;99.90
3154;DHT22;1587;48.630;9.046;2023-04-24T01:30:09;8.70;99.90
3154;DHT22;1587;48.630;9.046;2023-04-24T01:32:35;8.80;99.90
3154;DHT22;1587;48.630;9.046;2023-04-24T01:35:00;8.80;99.90
3154;DHT22;1587;48.630;9.046;2023-04-24T01:37:26;8.60;99.90
3154;DHT22;1587;48.630;9.046;2023-04-24T01:39:52;8.80;99.90
3154;DHT22;1587;48.630;9.046;2023-04-24T01:42:17;8.70;99.90
3154;DHT22;1587;48.630;9.046;2023-04-24T01:44:43;8.80;99.90
3154;DHT22;1587;48.630;9.046;2023-04-24T01:47:09;8.90;99.90
3154;DHT22;1587;48.630;9.046;2023-04-24T01:49:34;8.90;99.90
3154;DHT22;1587;48.630;9.046;2023-04-24T01:52:00;9.00;99.90
3154;DHT22;1587;48.630;9.046;2023-04-24T01:54:25;9.10;99.90
3154;DHT22;1587;48.630;9.046;2023-04-24T01:56:53;8.90;99.90
3154;DHT22;1587;48.630;9.046;2023-04-24T01:59:18;8.90;99.90
3154;DHT22;1587;48.630;9.046;2023-04-24T02:01:45;8.90;99.90
3154;DHT22;1587;48.630;9.046;2023-04-24T02:04:11;8.90;99.90
3154;DHT22;1587;48.630;9.046;2023-04-24T02:06:36;8.80;99.90
3154;DHT22;1587;48.630;9.046;2023-04-24T02:09:02;8.70;99.90
3154;DHT22;1587;48.630;9.046;2023-04-24T02:11:28;8.60;99.90
3154;DHT22;1587;48.630;9.046;2023-04-24T02:13:54;8.60;99.90
3154;DHT22;1587;48.630;9.046;2023-04-24T02:16:20;8.40;99.90
3154;DHT22;1587;48.630;9.046;2023-04-24T02:18:46;8.40;99.90
3154;DHT22;1587;48.630;9.046;2023-04-24T02:21:11;8.30;99.90
3154;DHT22;1587;48.630;9.046;2023-04-24T02:23:37;8.30;99.90
3154;DHT22;1587;48.630;9.046;2023-04-24T02:26:02;8.30;99.90
3154;DHT22;1587;48.630;9.046;2023-04-24T02:28:28;8.40;99.90
3154;DHT22;1587;48.630;9.046;2023-04-24T02:30:53;8.50;99.90
3154;DHT22;1587;48.630;9.046;2023-04-24T02:33:19;8.60;99.90
3154;DHT22;1587;48.630;9.046;2023-04-24T02:35:45;8.50;99.90
3154;DHT22;1587;48.630;9.046;2023-04-24T02:38:10;8.40;99.90
3154;DHT22;1587;48.630;9.046;2023-04-24T02:40:36;8.60;99.90
3154;DHT22;1587;48.630;9.046;2023-04-24T02:43:01;8.50;99.90
3154;DHT22;1587;48.630;9.046;2023-04-24T02:45:26;8.50;99.90
3154;DHT22;1587;48.630;9.046;2023-04-24T02:47:52;8.50;99.90
3154;DHT22;1587;48.630;9.046;2023-04-24T02:50:17;8.50;99.90
3154;DHT22;1587;48.630;9.046;2023-04-24T02:52:43;8.60;99.90
3154;DHT22;1587;48.630;9.046;2023-04-24T02:55:09;8.70;99.90
3154;DHT22;1587;48.630;9.046;2023-04-24T02:57:34;8.70;99.90
3154;DHT22;1587;48.630;9.046;2023-04-24T03:00:00;8.70;99.90
3154;DHT22;1587;48.630;9.046;2023-04-24T03:02:25;8.70;99.90
3154;DHT22;1587;48.630;9.046;2023-04-24T03:04:51;8.70;99.90
3154;DHT22;1587;48.630;9.046;2023-04-24T03:07:16;8.70;99.90
3154;DHT22;1587;48.630;9.046;2023-04-24T03:09:42;8.70;99.90
3154;DHT22;1587;48.630;9.046;2023-04-24T03:12:07;8.50;99.90
3154;DHT22;1587;48.630;9.046;2023-04-24T03:14:33;8.70;99.90
3154;DHT22;1587;48.630;9.046;2023-04-24T03:16:58;8.60;99.90
3154;DHT22;1587;48.630;9.046;2023-04-24T03:19:24;8.40;99.90
3154;DHT22;1587;48.630;9.046;2023-04-24T03:21:49;8.50;99.90
3154;DHT22;1587;48.630;9.046;2023-04-24T03:24:15;8.50;99.90
3154;DHT22;1587;48.630;9.046;2023-04-24T03:26:40;8.50;99.90
3154;DHT22;1587;48.630;9.046;2023-04-24T03:29:06;8.50;99.90
3154;DHT22;1587;48.630;9.046;2023-04-24T03:31:31;8.40;99.90
3154;DHT22;1587;48.630;9.046;2023-04-24T03:33:57;8.30;99.90
3154;DHT22;1587;48.630;9.046;2023-04-24T03:36:22;8.20;99.90
3154;DHT22;1587;48.630;9.046;2023-04-24T03:38:48;8.00;99.90
3154;DHT22;1587;48.630;9.046;2023-04-24T03:41:13;8.00;99.90
3154;DHT22;1587;48.630;9.046;2023-04-24T03:43:39;7.90;99.90
3154;DHT22;1587;48.630;9.046;2023-04-24T03:46:04;7.80;99.90
3154;DHT22;1587;48.630;9.046;2023-04-24T03:48:30;7.80;99.90
3154;DHT22;1587;48.630;9.046;2023-04-24T03:50:55;7.80;99.90
3154;DHT22;1587;48.630;9.046;2023-04-24T03:53:21;7.80;99.90
3154;DHT22;1587;48.630;9.046;2023-04-24T03:55:47;7.70;99.90
3154;DHT22;1587;48.630;9.046;2023-04-24T03:58:12;7.50;99.90
3154;DHT22;1587;48.630;9.046;2023-04-24T04:00:39;7.40;99.90
3154;DHT22;1587;48.630;9.046;2023-04-24T04:03:05;7.30;99.90
3154;DHT22;1587;48.630;9.046;2023-04-24T04:05:31;7.40;99.90
3154;DHT22;1587;48.630;9.046;2023-04-24T04:07:56;7.60;99.90
3154;DHT22;1587;48.630;9.046;2023-04-24T04:10:22;7.80;99.90
3154;DHT22;1587;48.630;9.046;2023-04-24T04:12:47;7.90;99.90
3154;DHT22;1587;48.630;9.046;2023-04-24T04:15:13;8.10;99.90
3154;DHT22;1587;48.630;9.046;2023-04-24T04:17:38;8.10;99.90
3154;DHT22;1587;48.630;9.046;2023-04-24T04:20:04;8.20;99.90
3154;DHT22;1587;48.630;9.046;2023-04-24T04:22:34;8.30;99.90
3154;DHT22;1587;48.630;9.046;2023-04-24T04:25:00;8.30;99.90
3154;DHT22;1587;48.630;9.046;2023-04-24T04:27:25;8.40;99.90
3154;DHT22;1587;48.630;9.046;2023-04-24T04:29:51;8.40;99.90
3154;DHT22;1587;48.630;9.046;2023-04-24T04:32:17;8.40;99.90
3154;DHT22;1587;48.630;9.046;2023-04-24T04:34:43;8.50;99.90
3154;DHT22;1587;48.630;9.046;2023-04-24T04:37:10;8.50;99.90
3154;DHT22;1587;48.630;9.046;2023-04-24T04:39:37;8.50;99.90
3154;DHT22;1587;48.630;9.046;2023-04-24T04:42:03;8.50;99.90
3154;DHT22;1587;48.630;9.046;2023-04-24T04:44:29;8.20;99.90
3154;DHT22;1587;48.630;9.046;2023-04-24T04:46:56;7.50;99.90
3154;DHT22;1587;48.630;9.046;2023-04-24T04:49:22;7.30;99.90
3154;DHT22;1587;48.630;9.046;2023-04-24T04:51:49;7.20;99.90
3154;DHT22;1587;48.630;9.046;2023-04-24T04:54:14;7.10;99.90
3154;DHT22;1587;48.630;9.046;2023-04-24T04:56:41;7.20;99.90
3154;DHT22;1587;48.630;9.046;2023-04-24T04:59:06;7.10;99.90
3154;DHT22;1587;48.630;9.046;2023-04-24T05:01:31;7.00;99.90
3154;DHT22;1587;48.630;9.046;2023-04-24T05:03:57;7.00;99.90
3154;DHT22;1587;48.630;9.046;2023-04-24T05:06:22;7.00;99.90
3154;DHT22;1587;48.630;9.046;2023-04-24T05:08:48;7.00;99.90
3154;DHT22;1587;48.630;9.046;2023-04-24T05:11:14;7.00;99.90
3154;DHT22;1587;48.630;9.046;2023-04-24T05:13:40;7.10;99.90
3154;DHT22;1587;48.630;9.046;2023-04-24T05:16:05;7.00;99.90
3154;DHT22;1587;48.630;9.046;2023-04-24T05:18:31;7.10;99.90
3154;DHT22;1587;48.630;9.046;2023-04-24T05:20:56;7.10;99.90
3154;DHT22;1587;48.630;9.046;2023-04-24T05:23:22;7.30;99.90
3154;DHT22;1587;48.630;9.046;2023-04-24T05:25:47;7.30;99.90
3154;DHT22;1587;48.630;9.046;2023-04-24T05:28:13;7.40;99.90
3154;DHT22;1587;48.630;9.046;2023-04-24T05:30:38;7.30;99.90
3154;DHT22;1587;48.630;9.046;2023-04-24T05:33:04;7.30;99.90
3154;DHT22;1587;48.630;9.046;2023-04-24T05:35:29;7.50;99.90
3154;DHT22;1587;48.630;9.046;2023-04-24T05:37:55;7.60;99.90
3154;DHT22;1587;48.630;9.046;2023-04-24T05:40:20;7.70;99.90
3154;DHT22;1587;48.630;9.046;2023-04-24T05:42:46;7.70;99.90
3154;DHT22;1587;48.630;9.046;2023-04-24T05:45:11;7.60;99.90
3154;DHT22;1587;48.630;9.046;2023-04-24T05:47:42;7.60;99.90
3154;DHT22;1587;48.630;9.046;2023-04-24T05:50:07;7.70;99.90
3154;DHT22;1587;48.630;9.046;2023-04-24T05:52:33;7.70;99.90
3154;DHT22;1587;48.630;9.046;2023-04-24T05:54:58;7.70;99.90
3154;DHT22;1587;48.630;9.046;2023-04-24T05:57:24;7.80;99.90
3154;DHT22;1587;48.630;9.046;2023-04-24T05:59:50;7.80;99.90
3154;DHT22;1587;48.630;9.046;2023-04-24T06:02:15;8.00;99.90
3154;DHT22;1587;48.630;9.046;2023-04-24T06:04:41;7.90;99.90
3154;DHT22;1587;48.630;9.046;2023-04-24T06:07:07;7.80;99.90
3154;DHT22;1587;48.630;9.046;2023-04-24T06:09:32;7.50;99.90
3154;DHT22;1587;48.630;9.046;2023-04-24T06:11:57;7.50;99.90
3154;DHT22;1587;48.630;9.046;2023-04-24T06:14:25;7.50;99.90
3154;DHT22;1587;48.630;9.046;2023-04-24T06:16:50;7.90;99.90
3154;DHT22;1587;48.630;9.046;2023-04-24T06:19:16;7.60;99.90
3154;DHT22;1587;48.630;9.046;2023-04-24T06:21:41;7.90;99.90
3154;DHT22;1587;48.630;9.046;2023-04-24T06:24:07;8.30;99.90
3154;DHT22;1587;48.630;9.046;2023-04-24T06:26:32;8.70;99.90
3154;DHT22;1587;48.630;9.046;2023-04-24T06:28:58;9.30;99.90
3154;DHT22;1587;48.630;9.046;2023-04-24T06:31:24;9.50;99.90
3154;DHT22;1587;48.630;9.046;2023-04-24T06:33:50;9.80;99.90
3154;DHT22;1587;48.630;9.046;2023-04-24T06:36:15;10.30;99.90
3154;DHT22;1587;48.630;9.046;2023-04-24T06:38:41;10.10;99.90
3154;DHT22;1587;48.630;9.046;2023-04-24T06:41:07;10.50;99.90
3154;DHT22;1587;48.630;9.046;2023-04-24T06:43:33;10.90;99.90
3154;DHT22;1587;48.630;9.046;2023-04-24T06:45:59;10.90;99.90
3154;DHT22;1587;48.630;9.046;2023-04-24T06:48:24;11.00;99.90
3154;DHT22;1587;48.630;9.046;2023-04-24T06:50:51;11.10;99.90
3154;DHT22;1587;48.630;9.046;2023-04-24T06:53:16;10.50;99.90
3154;DHT22;1587;48.630;9.046;2023-04-24T06:55:42;10.40;99.90
3154;DHT22;1587;48.630;9.046;2023-04-24T06:58:08;10.30;99.90
3154;DHT22;1587;48.630;9.046;2023-04-24T07:00:34;9.90;99.90
3154;DHT22;1587;48.630;9.046;2023-04-24T07:02:59;9.70;99.90
3154;DHT22;1587;48.630;9.046;2023-04-24T07:05:25;9.60;99.90
3154;DHT22;1587;48.630;9.046;2023-04-24T07:07:50;9.60;99.90
3154;DHT22;1587;48.630;9.046;2023-04-24T07:10:16;10.40;99.90
3154;DHT22;1587;48.630;9.046;2023-04-24T07:12:42;9.50;99.90
3154;DHT22;1587;48.630;9.046;2023-04-24T07:15:07;9.30;99.90
3154;DHT22;1587;48.630;9.046;2023-04-24T07:17:33;8.60;99.90
3154;DHT22;1587;48.630;9.046;2023-04-24T07:20:00;7.20;99.90
3154;DHT22;1587;48.630;9.046;2023-04-24T07:22:25;7.20;99.90
3154;DHT22;1587;48.630;9.046;2023-04-24T07:24:51;7.60;99.90
3154;DHT22;1587;48.630;9.046;2023-04-24T07:27:16;8.90;99.90
3154;DHT22;1587;48.630;9.046;2023-04-24T07:29:42;9.10;99.90
3154;DHT22;1587;48.630;9.046;2023-04-24T07:32:07;10.40;99.90
3154;DHT22;1587;48.630;9.046;2023-04-24T07:34:34;10.90;99.90
3154;DHT22;1587;48.630;9.046;2023-04-24T07:37:00;11.50;99.90
3154;DHT22;1587;48.630;9.046;2023-04-24T07:39:25;11.60;99.90
3154;DHT22;1587;48.630;9.046;2023-04-24T07:41:51;11.10;99.90
3154;DHT22;1587;48.630;9.046;2023-04-24T07:44:17;11.70;99.90
3154;DHT22;1587;48.630;9.046;2023-04-24T07:46:42;10.20;99.90
3154;DHT22;1587;48.630;9.046;2023-04-24T07:49:08;9.80;99.90
3154;DHT22;1587;48.630;9.046;2023-04-24T07:51:33;10.00;99.90
3154;DHT22;1587;48.630;9.046;2023-04-24T07:54:04;10.30;99.90
3154;DHT22;1587;48.630;9.046;2023-04-24T07:56:30;10.80;99.90
3154;DHT22;1587;48.630;9.046;2023-04-24T07:58:56;11.40;99.90
3154;DHT22;1587;48.630;9.046;2023-04-24T08:01:21;11.50;99.90
